OH98 weather

CLOSED Lyttle Airport
New Albany, Ohio, United States

Public forecast

Using degrees Fahrenheit for public forecast. Weather courtesy of forecast.io.

METAR (pilot weather report)

Closest report is John Glenn Columbus International Airport, 5.7 nm (10.5 km) WSW. Retrieved 2019/05/19 14:51 UTC (1 hour ago):

KCMH 191451Z 19012G25KT 10SM BKN250 27/17 A2989 RMK AO2 SLP113 T02670167 53001 $

TAF (pilot weather forecast)

Closest forecast is John Glenn Columbus International Airport, 5.7 nm (10.5 km) WSW. Retrieved 2019/05/19 12:22 UTC (4 hours ago):

TAF KCMH 191120Z 1912/2012 19012KT P6SM FEW150 SCT250 FM191400 20017G27KT P6SM SCT150 BKN250 FM191900 21021G40KT P6SM FEW050 BKN250 FM192000 21020G40KT P6SM VCSH BKN050 FM192300 22017G27KT P6SM -SHRA VCTS BKN050CB OVC100 FM200200 21014G23KT P6SM -SHRA OVC040 FM200600 24012KT P6SM BKN012